createdAt,value
2018-07-26T00:01:32.604Z,21.80
2018-07-26T00:04:01.259Z,21.70
2018-07-26T00:06:29.929Z,21.70
2018-07-26T00:08:58.519Z,21.70
2018-07-26T00:11:27.173Z,21.70
2018-07-26T00:13:55.828Z,21.60
2018-07-26T00:16:24.456Z,21.50
2018-07-26T00:18:53.122Z,21.50
2018-07-26T00:21:21.710Z,21.40
2018-07-26T00:23:50.314Z,21.40
2018-07-26T00:26:18.907Z,21.30
2018-07-26T00:28:47.493Z,21.30
2018-07-26T00:31:16.084Z,21.20
2018-07-26T00:33:44.675Z,21.20
2018-07-26T00:36:13.244Z,21.10
2018-07-26T00:38:41.868Z,21.10
2018-07-26T00:41:10.499Z,21.00
2018-07-26T00:43:39.105Z,20.90
2018-07-26T00:46:07.736Z,21.00
2018-07-26T00:48:36.431Z,21.00
2018-07-26T00:51:05.059Z,21.00
2018-07-26T00:53:33.705Z,21.00
2018-07-26T00:56:02.301Z,20.90
2018-07-26T00:58:30.904Z,20.90
2018-07-26T01:00:59.538Z,20.90
2018-07-26T01:03:28.255Z,20.80
2018-07-26T01:05:56.887Z,20.70
2018-07-26T01:08:25.490Z,20.60
2018-07-26T01:10:54.211Z,20.60
2018-07-26T01:13:22.796Z,20.60
2018-07-26T01:15:51.461Z,20.70
2018-07-26T01:18:20.108Z,20.60
2018-07-26T01:20:48.809Z,20.70
2018-07-26T01:23:17.432Z,20.70
2018-07-26T01:25:46.076Z,20.70
2018-07-26T01:28:14.894Z,20.70
2018-07-26T01:30:43.541Z,20.70
2018-07-26T01:33:12.270Z,20.40
2018-07-26T01:35:40.948Z,20.20
2018-07-26T01:38:09.695Z,20.10
2018-07-26T01:40:38.416Z,20.00
2018-07-26T01:43:47.612Z,19.90
2018-07-26T01:46:16.559Z,19.90
2018-07-26T01:48:45.330Z,19.90
2018-07-26T01:51:14.389Z,19.90
2018-07-26T01:53:43.684Z,19.90
2018-07-26T01:56:12.365Z,19.90
2018-07-26T01:58:41.012Z,19.90
2018-07-26T02:01:10.586Z,20.00
2018-07-26T02:03:39.588Z,20.10
2018-07-26T02:06:08.611Z,20.10
2018-07-26T02:08:37.265Z,19.90
2018-07-26T02:11:05.989Z,19.90
2018-07-26T02:13:34.890Z,19.90
2018-07-26T02:16:03.500Z,19.80
2018-07-26T02:18:32.156Z,19.70
2018-07-26T02:21:00.799Z,19.70
2018-07-26T02:23:29.428Z,19.60
2018-07-26T02:25:58.147Z,19.60
2018-07-26T02:28:26.772Z,19.50
2018-07-26T02:30:55.553Z,19.50
2018-07-26T02:33:24.056Z,19.40
2018-07-26T02:35:52.786Z,19.40
2018-07-26T02:38:21.356Z,19.40
2018-07-26T02:40:49.952Z,19.30
2018-07-26T02:43:18.513Z,19.20
2018-07-26T02:45:47.237Z,19.10
2018-07-26T02:48:15.917Z,19.00
2018-07-26T02:50:44.492Z,18.90
2018-07-26T02:53:13.104Z,18.90
2018-07-26T02:55:41.776Z,18.80
2018-07-26T02:58:10.393Z,18.80
2018-07-26T03:00:39.112Z,18.70
2018-07-26T03:03:07.854Z,18.80
2018-07-26T03:05:36.465Z,18.90
2018-07-26T03:08:05.169Z,18.90
2018-07-26T03:10:33.875Z,19.00
2018-07-26T03:13:02.458Z,19.10
2018-07-26T03:15:31.030Z,19.10
2018-07-26T03:17:59.647Z,19.10
2018-07-26T03:20:28.299Z,19.10
2018-07-26T03:22:56.882Z,19.00
2018-07-26T03:25:25.496Z,19.00
2018-07-26T03:27:54.155Z,19.00
2018-07-26T03:30:22.743Z,18.90
2018-07-26T03:32:51.410Z,18.90
2018-07-26T03:35:20.065Z,18.70
2018-07-26T03:37:48.766Z,18.60
2018-07-26T03:40:17.446Z,18.50
2018-07-26T03:42:46.078Z,18.40
2018-07-26T03:45:14.739Z,18.40
2018-07-26T03:47:43.323Z,18.30
2018-07-26T03:50:11.964Z,18.30
2018-07-26T03:52:40.637Z,18.30
2018-07-26T03:55:09.237Z,18.20
2018-07-26T03:57:37.896Z,18.20
2018-07-26T04:00:06.672Z,18.20
2018-07-26T04:02:35.350Z,18.10
2018-07-26T04:05:04.005Z,18.10
2018-07-26T04:07:32.688Z,18.10
2018-07-26T04:10:01.369Z,18.10
2018-07-26T04:12:30.042Z,18.10
2018-07-26T04:14:58.740Z,18.10
2018-07-26T04:17:27.363Z,18.20
2018-07-26T04:19:56.042Z,18.30
2018-07-26T04:22:24.661Z,18.40
2018-07-26T04:24:53.340Z,18.40
2018-07-26T04:27:21.944Z,18.40
2018-07-26T04:29:50.668Z,18.50
2018-07-26T04:32:19.436Z,18.40
2018-07-26T04:34:48.034Z,18.40
2018-07-26T04:37:16.705Z,18.30
2018-07-26T04:39:45.944Z,18.20
2018-07-26T04:42:14.592Z,18.20
2018-07-26T04:44:43.261Z,18.20
2018-07-26T04:47:11.952Z,18.20
2018-07-26T04:49:40.719Z,18.30
2018-07-26T04:52:09.412Z,18.30
2018-07-26T04:54:38.130Z,18.40
2018-07-26T04:57:06.752Z,18.50
2018-07-26T04:59:35.384Z,18.50
2018-07-26T05:02:04.121Z,18.60
2018-07-26T05:04:32.712Z,18.80
2018-07-26T05:07:01.276Z,18.90
2018-07-26T05:09:30.037Z,19.00
2018-07-26T05:11:58.679Z,19.00
2018-07-26T05:14:27.309Z,19.10
2018-07-26T05:16:56.029Z,19.10
2018-07-26T05:19:24.638Z,19.20
2018-07-26T05:21:53.395Z,19.30
2018-07-26T05:24:22.028Z,19.40
2018-07-26T05:26:54.069Z,19.40
2018-07-26T05:29:22.708Z,19.50
2018-07-26T05:31:51.325Z,19.60
2018-07-26T05:34:19.988Z,19.70
2018-07-26T05:36:48.625Z,19.80
2018-07-26T05:39:17.298Z,19.90
2018-07-26T05:41:45.849Z,20.00
2018-07-26T05:44:14.482Z,20.10
2018-07-26T05:46:43.029Z,20.20
2018-07-26T05:49:11.688Z,20.30
2018-07-26T05:51:40.300Z,20.50
2018-07-26T05:54:08.945Z,20.60
2018-07-26T05:56:37.621Z,20.70
2018-07-26T05:59:06.300Z,20.80
2018-07-26T06:01:34.945Z,21.00
2018-07-26T06:04:03.593Z,21.10
2018-07-26T06:06:32.218Z,21.20
2018-07-26T06:09:00.748Z,21.20
2018-07-26T06:11:29.463Z,21.40
2018-07-26T06:13:58.044Z,21.50
2018-07-26T06:16:26.617Z,21.60
2018-07-26T06:18:55.376Z,21.70
2018-07-26T06:21:24.024Z,21.80
2018-07-26T06:23:52.684Z,22.00
2018-07-26T06:26:21.304Z,22.10
2018-07-26T06:28:49.864Z,22.20
2018-07-26T06:31:18.781Z,22.40
2018-07-26T06:33:47.506Z,22.50
2018-07-26T06:36:16.101Z,22.60
2018-07-26T06:38:44.869Z,22.70
2018-07-26T06:41:13.480Z,22.80
2018-07-26T06:43:42.569Z,22.90
2018-07-26T06:46:11.176Z,23.00
2018-07-26T06:48:39.801Z,23.10
2018-07-26T06:51:08.452Z,23.30
2018-07-26T06:53:37.093Z,23.40
2018-07-26T06:56:06.111Z,23.50
2018-07-26T06:58:34.852Z,23.70
2018-07-26T07:01:03.478Z,23.80
2018-07-26T07:03:32.023Z,24.00
2018-07-26T07:06:00.642Z,24.20
2018-07-26T07:08:29.303Z,24.40
2018-07-26T07:10:57.928Z,24.70
2018-07-26T07:13:26.596Z,25.00
2018-07-26T07:15:55.193Z,25.40
2018-07-26T07:18:39.654Z,25.70
2018-07-26T07:21:08.284Z,26.00
2018-07-26T07:23:36.880Z,26.30
2018-07-26T07:26:07.790Z,26.60
2018-07-26T07:28:36.831Z,26.90
2018-07-26T07:31:05.604Z,27.30
2018-07-26T07:33:34.496Z,27.60
2018-07-26T07:36:03.323Z,28.00
2018-07-26T07:38:32.065Z,28.40
2018-07-26T07:41:00.716Z,28.60
2018-07-26T07:43:29.413Z,28.70
2018-07-26T07:45:58.093Z,28.90
2018-07-26T07:48:27.218Z,29.20
2018-07-26T07:50:58.379Z,29.50
2018-07-26T07:53:27.072Z,29.60
2018-07-26T07:55:55.816Z,29.80
2018-07-26T07:58:24.597Z,30.00
2018-07-26T08:00:54.921Z,30.20
2018-07-26T08:03:23.754Z,30.40
2018-07-26T08:05:52.637Z,30.70
2018-07-26T08:08:21.592Z,31.10
2018-07-26T08:10:50.328Z,31.30
2018-07-26T08:13:20.007Z,31.40
2018-07-26T08:15:48.666Z,31.50
2018-07-26T08:18:17.198Z,31.50
2018-07-26T08:20:46.010Z,31.30
2018-07-26T08:23:14.584Z,31.50
2018-07-26T08:25:43.143Z,32.00
2018-07-26T08:28:11.720Z,32.30
2018-07-26T08:31:03.203Z,32.50
2018-07-26T08:36:28.910Z,32.90
2018-07-26T08:38:57.539Z,33.10
2018-07-26T08:41:26.139Z,33.40
2018-07-26T08:43:54.736Z,33.30
2018-07-26T08:46:23.292Z,33.50
2018-07-26T08:48:51.900Z,33.60
2018-07-26T08:51:20.411Z,33.40
2018-07-26T08:53:49.040Z,33.30
2018-07-26T08:56:17.561Z,33.30
2018-07-26T08:58:46.112Z,33.40
2018-07-26T09:01:14.784Z,33.50
2018-07-26T09:03:43.588Z,33.70
2018-07-26T09:06:13.620Z,33.90
2018-07-26T09:08:42.264Z,33.80
2018-07-26T09:11:10.806Z,34.00
2018-07-26T09:13:39.464Z,34.10
2018-07-26T09:16:09.753Z,34.20
2018-07-26T09:18:38.420Z,34.30
2018-07-26T09:21:07.986Z,34.30
2018-07-26T09:23:36.622Z,34.30
2018-07-26T09:26:05.225Z,34.70
2018-07-26T09:28:33.761Z,35.00
2018-07-26T09:31:02.361Z,35.20
2018-07-26T09:33:30.985Z,35.40
2018-07-26T09:35:59.796Z,35.60
2018-07-26T09:38:28.405Z,35.70
2018-07-26T09:40:57.032Z,35.80
2018-07-26T09:43:25.617Z,36.10
2018-07-26T09:45:54.164Z,36.40
2018-07-26T09:48:22.740Z,36.70
2018-07-26T09:50:51.385Z,37.20
2018-07-26T09:53:19.932Z,37.60
2018-07-26T09:55:48.688Z,37.80
2018-07-26T10:01:33.249Z,38.30
2018-07-26T10:04:01.863Z,37.90
2018-07-26T10:06:30.400Z,37.40
2018-07-26T10:09:07.612Z,37.50
2018-07-26T10:11:36.197Z,38.10
2018-07-26T10:14:04.970Z,38.30
2018-07-26T10:16:33.488Z,38.10
2018-07-26T10:19:02.053Z,38.00
2018-07-26T10:21:30.729Z,37.90
2018-07-26T10:23:59.597Z,38.00
2018-07-26T10:26:28.172Z,38.30
2018-07-26T10:28:56.720Z,38.70
2018-07-26T10:31:25.242Z,38.60
2018-07-26T10:33:53.854Z,38.90
2018-07-26T10:36:22.604Z,39.30
2018-07-26T10:38:51.129Z,39.20
2018-07-26T10:41:19.763Z,39.10
2018-07-26T10:43:54.057Z,39.10
2018-07-26T10:46:24.597Z,39.00
2018-07-26T10:48:54.655Z,39.30
2018-07-26T10:51:23.268Z,38.90
2018-07-26T10:53:51.956Z,39.20
2018-07-26T10:56:20.540Z,39.80
2018-07-26T10:58:49.066Z,40.30
2018-07-26T11:01:18.111Z,40.20
2018-07-26T11:03:47.211Z,39.90
2018-07-26T11:06:15.792Z,39.80
2018-07-26T11:08:44.405Z,39.50
2018-07-26T11:11:13.020Z,39.60
2018-07-26T11:13:41.558Z,39.70
2018-07-26T11:16:10.140Z,39.70
2018-07-26T11:18:38.711Z,40.10
2018-07-26T11:21:07.304Z,40.50
2018-07-26T11:23:35.804Z,40.50
2018-07-26T11:26:04.426Z,40.40
2018-07-26T11:28:33.090Z,40.70
2018-07-26T11:31:01.723Z,40.70
2018-07-26T11:33:30.468Z,40.50
2018-07-26T11:35:59.089Z,40.60
2018-07-26T11:38:33.404Z,41.10
2018-07-26T11:41:05.924Z,41.20
2018-07-26T11:43:34.535Z,41.30
2018-07-26T11:46:03.072Z,41.20
2018-07-26T11:48:31.768Z,41.10
2018-07-26T11:51:00.456Z,41.10
2018-07-26T11:53:31.080Z,41.10
2018-07-26T11:55:59.711Z,41.20
2018-07-26T11:58:28.249Z,41.20
2018-07-26T12:00:56.848Z,41.00
2018-07-26T12:03:25.374Z,40.70
2018-07-26T12:05:53.945Z,40.50
2018-07-26T12:08:22.716Z,40.40
2018-07-26T12:10:51.389Z,40.50
2018-07-26T12:13:19.912Z,40.20
2018-07-26T12:15:48.467Z,40.30
2018-07-26T12:24:04.574Z,40.80
2018-07-26T12:26:33.179Z,40.80
2018-07-26T12:29:01.676Z,41.10
2018-07-26T12:31:30.180Z,40.70
2018-07-26T12:33:58.758Z,40.60
2018-07-26T12:36:27.503Z,40.80
2018-07-26T12:38:56.061Z,40.60
2018-07-26T12:41:24.641Z,40.60
2018-07-26T12:43:53.159Z,40.70
2018-07-26T12:46:21.796Z,40.70
2018-07-26T12:48:50.374Z,40.70
2018-07-26T12:51:18.888Z,40.80
2018-07-26T12:53:47.487Z,41.00
2018-07-26T12:56:16.057Z,40.60
2018-07-26T12:58:44.608Z,40.20
2018-07-26T13:01:13.238Z,40.20
2018-07-26T13:03:41.788Z,40.20
2018-07-26T13:06:10.397Z,40.60
2018-07-26T13:08:38.965Z,40.80
2018-07-26T13:11:07.600Z,41.10
2018-07-26T13:13:36.108Z,41.40
2018-07-26T13:16:04.724Z,41.90
2018-07-26T13:18:33.309Z,42.30
2018-07-26T13:21:02.049Z,42.40
2018-07-26T13:23:30.723Z,42.40
2018-07-26T13:25:59.272Z,42.70
2018-07-26T13:28:27.944Z,43.30
2018-07-26T13:30:56.639Z,44.00
2018-07-26T13:33:25.305Z,44.00
2018-07-26T13:35:53.986Z,43.80
2018-07-26T13:38:22.528Z,43.80
2018-07-26T13:40:51.148Z,44.20
2018-07-26T13:43:19.768Z,44.70
2018-07-26T13:45:48.388Z,45.70
2018-07-26T13:48:16.963Z,46.30
2018-07-26T13:50:45.508Z,46.80
2018-07-26T13:53:14.044Z,46.80
2018-07-26T13:55:42.616Z,47.00
2018-07-26T13:58:11.224Z,47.20
2018-07-26T14:00:39.800Z,47.90
2018-07-26T14:03:08.371Z,48.40
2018-07-26T14:05:36.940Z,49.10
2018-07-26T14:08:05.872Z,49.80
2018-07-26T14:10:34.412Z,50.10
2018-07-26T14:13:02.999Z,50.10
2018-07-26T14:15:31.630Z,49.50
2018-07-26T14:18:00.172Z,49.20
2018-07-26T14:23:38.869Z,48.40
2018-07-26T14:26:09.264Z,47.60
2018-07-26T14:28:37.821Z,47.40
2018-07-26T14:31:06.531Z,47.40
2018-07-26T14:33:35.133Z,47.30
2018-07-26T14:36:03.845Z,46.60
2018-07-26T14:38:32.492Z,46.10
2018-07-26T14:41:01.112Z,46.30
2018-07-26T14:43:29.721Z,46.80
2018-07-26T14:45:58.371Z,46.60
2018-07-26T14:48:26.935Z,47.00
2018-07-26T14:50:55.460Z,46.60
2018-07-26T14:53:24.136Z,46.50
2018-07-26T14:55:52.653Z,46.90
2018-07-26T14:58:21.296Z,47.20
2018-07-26T15:00:49.925Z,46.60
2018-07-26T15:03:18.488Z,46.10
2018-07-26T15:05:46.988Z,45.60
2018-07-26T15:08:15.602Z,45.50
2018-07-26T15:10:44.165Z,46.00
2018-07-26T15:13:12.741Z,46.70
2018-07-26T15:15:41.437Z,46.90
2018-07-26T15:18:09.895Z,47.00
2018-07-26T15:20:38.497Z,46.70
2018-07-26T15:23:07.102Z,46.20
2018-07-26T15:25:35.667Z,45.80
2018-07-26T15:28:04.168Z,45.60
2018-07-26T15:30:32.780Z,45.70
2018-07-26T15:33:01.290Z,46.00
2018-07-26T15:35:29.844Z,46.00
2018-07-26T15:37:58.349Z,45.90
2018-07-26T15:40:26.904Z,45.70
2018-07-26T15:42:55.460Z,45.70
2018-07-26T15:45:23.956Z,45.80
2018-07-26T15:47:52.404Z,46.00
2018-07-26T15:50:20.925Z,45.90
2018-07-26T15:52:49.525Z,45.80
2018-07-26T15:55:18.135Z,45.40
2018-07-26T15:57:46.604Z,45.60
2018-07-26T16:00:15.238Z,45.70
2018-07-26T16:02:43.794Z,45.70
2018-07-26T16:05:12.362Z,45.90
2018-07-26T16:07:40.956Z,45.90
2018-07-26T16:10:09.912Z,45.60
2018-07-26T16:12:38.652Z,45.30
2018-07-26T16:15:09.981Z,44.90
2018-07-26T16:17:38.603Z,45.00
2018-07-26T16:20:08.393Z,45.20
2018-07-26T16:22:36.856Z,45.50
2018-07-26T16:25:06.505Z,45.60
2018-07-26T16:27:35.100Z,45.90
2018-07-26T16:30:03.777Z,46.20
2018-07-26T16:32:32.288Z,45.80
2018-07-26T16:35:00.856Z,45.70
2018-07-26T16:37:29.404Z,45.70
2018-07-26T16:39:58.002Z,45.70
2018-07-26T16:42:26.546Z,45.60
2018-07-26T16:44:55.129Z,45.40
2018-07-26T16:47:23.660Z,45.60
2018-07-26T16:49:52.164Z,45.50
2018-07-26T16:52:20.777Z,45.50
2018-07-26T16:54:49.303Z,44.70
2018-07-26T16:57:17.940Z,44.10
2018-07-26T16:59:46.734Z,43.90
2018-07-26T17:02:15.495Z,43.90
2018-07-26T17:04:44.168Z,43.80
2018-07-26T17:07:13.328Z,42.70
2018-07-26T17:09:42.006Z,42.50
2018-07-26T17:12:10.869Z,42.70
2018-07-26T17:14:39.505Z,42.80
2018-07-26T17:17:08.240Z,42.80
2018-07-26T17:19:36.896Z,42.80
2018-07-26T17:22:05.474Z,42.50
2018-07-26T17:24:34.004Z,42.20
2018-07-26T17:27:02.561Z,42.00
2018-07-26T17:29:31.139Z,42.00
2018-07-26T17:31:59.684Z,42.00
2018-07-26T17:34:28.241Z,42.10
2018-07-26T17:36:56.800Z,42.20
2018-07-26T17:39:25.365Z,42.00
2018-07-26T17:41:53.900Z,42.10
2018-07-26T17:44:22.464Z,42.00
2018-07-26T17:46:51.072Z,41.70
2018-07-26T17:49:19.696Z,41.20
2018-07-26T17:51:48.271Z,41.00
2018-07-26T17:54:16.848Z,41.00
2018-07-26T17:56:45.435Z,41.20
2018-07-26T17:59:13.992Z,40.90
2018-07-26T18:01:42.576Z,40.60
2018-07-26T18:04:11.185Z,40.40
2018-07-26T18:06:39.780Z,40.20
2018-07-26T18:09:08.856Z,39.80
2018-07-26T18:11:37.412Z,39.20
2018-07-26T18:14:06.007Z,38.90
2018-07-26T18:16:34.603Z,38.60
2018-07-26T18:19:03.166Z,38.30
2018-07-26T18:21:31.705Z,38.20
2018-07-26T18:24:00.308Z,38.00
2018-07-26T18:26:28.874Z,37.70
2018-07-26T18:28:57.448Z,37.40
2018-07-26T18:31:26.366Z,36.90
2018-07-26T18:33:55.000Z,36.40
2018-07-26T18:36:23.520Z,35.80
2018-07-26T18:38:52.065Z,35.30
2018-07-26T18:41:20.627Z,34.80
2018-07-26T18:43:49.237Z,34.30
2018-07-26T18:46:17.765Z,33.80
2018-07-26T18:48:46.405Z,33.40
2018-07-26T18:51:14.969Z,33.00
2018-07-26T18:53:43.581Z,32.70
2018-07-26T18:56:12.185Z,32.40
2018-07-26T18:58:40.865Z,32.00
2018-07-26T19:01:09.452Z,31.60
2018-07-26T19:03:38.001Z,31.30
2018-07-26T19:06:06.678Z,31.10
2018-07-26T19:08:35.373Z,30.70
2018-07-26T19:11:03.984Z,30.50
2018-07-26T19:13:32.658Z,30.40
2018-07-26T19:16:02.790Z,30.20
2018-07-26T19:18:31.522Z,30.10
2018-07-26T19:21:01.201Z,29.90
2018-07-26T19:23:29.905Z,29.80
2018-07-26T19:25:58.538Z,29.60
2018-07-26T19:28:27.147Z,29.40
2018-07-26T19:30:55.776Z,29.10
2018-07-26T19:33:24.489Z,28.80
2018-07-26T19:35:53.165Z,28.60
2018-07-26T19:38:21.810Z,28.40
2018-07-26T19:40:50.492Z,28.10
2018-07-26T19:43:19.057Z,27.80
2018-07-26T19:45:47.769Z,27.40
2018-07-26T19:48:16.387Z,27.10
2018-07-26T19:50:47.387Z,27.00
2018-07-26T19:53:15.988Z,26.90
2018-07-26T19:55:44.556Z,26.70
2018-07-26T19:58:13.112Z,26.70
2018-07-26T20:00:41.734Z,26.70
2018-07-26T20:03:17.880Z,26.80
2018-07-26T20:05:46.484Z,26.80
2018-07-26T20:08:15.117Z,26.80
2018-07-26T20:10:43.780Z,26.80
2018-07-26T20:13:12.388Z,26.80
2018-07-26T20:15:42.660Z,26.80
2018-07-26T20:18:11.256Z,26.70
2018-07-26T20:20:39.868Z,26.70
2018-07-26T20:23:08.567Z,26.60
2018-07-26T20:25:41.624Z,26.60
2018-07-26T20:28:10.744Z,26.50
2018-07-26T20:30:39.385Z,26.30
2018-07-26T20:33:08.001Z,26.10
2018-07-26T20:35:36.599Z,26.00
2018-07-26T20:38:05.264Z,25.90
2018-07-26T20:40:33.891Z,25.80
2018-07-26T20:43:04.103Z,25.80
2018-07-26T20:45:32.696Z,25.70
2018-07-26T20:48:01.222Z,25.60
2018-07-26T20:50:29.964Z,25.50
2018-07-26T20:52:58.584Z,25.40
2018-07-26T20:55:27.237Z,25.40
2018-07-26T20:57:55.984Z,25.30
2018-07-26T21:00:24.598Z,25.30
2018-07-26T21:02:53.140Z,25.20
2018-07-26T21:05:21.879Z,25.00
2018-07-26T21:07:50.388Z,24.90
2018-07-26T21:10:19.038Z,24.70
2018-07-26T21:12:47.721Z,24.60
2018-07-26T21:15:16.348Z,24.50
2018-07-26T21:17:44.881Z,24.30
2018-07-26T21:20:13.508Z,24.20
2018-07-26T21:22:42.169Z,24.10
2018-07-26T21:25:10.874Z,24.00
2018-07-26T21:27:39.512Z,24.00
2018-07-26T21:30:08.281Z,24.00
2018-07-26T21:32:37.227Z,23.90
2018-07-26T21:35:06.800Z,23.80
2018-07-26T21:37:35.401Z,23.70
2018-07-26T21:40:04.713Z,23.50
2018-07-26T21:42:33.314Z,23.40
2018-07-26T21:45:01.981Z,23.40
2018-07-26T21:47:30.696Z,23.40
2018-07-26T21:49:59.241Z,23.30
2018-07-26T21:52:27.965Z,23.30
2018-07-26T21:54:56.610Z,23.30
2018-07-26T21:57:25.180Z,23.20
2018-07-26T21:59:53.714Z,23.20
2018-07-26T22:02:22.470Z,23.10
2018-07-26T22:04:51.182Z,23.10
2018-07-26T22:07:20.009Z,23.00
2018-07-26T22:09:48.634Z,22.90
2018-07-26T22:12:17.281Z,22.70
2018-07-26T22:14:45.948Z,22.60
2018-07-26T22:17:14.545Z,22.60
2018-07-26T22:19:43.192Z,22.60
2018-07-26T22:22:11.881Z,22.50
2018-07-26T22:24:40.420Z,22.50
2018-07-26T22:27:09.069Z,22.50
2018-07-26T22:29:37.780Z,22.40
2018-07-26T22:32:06.486Z,22.20
2018-07-26T22:34:35.101Z,22.10
2018-07-26T22:37:03.757Z,22.00
2018-07-26T22:39:32.485Z,21.90
2018-07-26T22:42:01.106Z,21.90
2018-07-26T22:44:29.788Z,21.90
2018-07-26T22:46:58.492Z,21.80
2018-07-26T22:49:27.119Z,21.70
2018-07-26T22:51:55.744Z,21.60
2018-07-26T22:54:24.358Z,21.50
2018-07-26T22:56:53.017Z,21.30
2018-07-26T22:59:21.683Z,21.20
2018-07-26T23:01:50.344Z,21.10
2018-07-26T23:04:18.968Z,21.10
2018-07-26T23:06:47.580Z,21.10
2018-07-26T23:09:16.261Z,21.00
2018-07-26T23:11:44.871Z,21.00
2018-07-26T23:14:13.525Z,20.80
2018-07-26T23:16:42.178Z,20.70
2018-07-26T23:19:10.836Z,20.60
2018-07-26T23:21:39.368Z,20.60
2018-07-26T23:24:08.081Z,20.60
2018-07-26T23:26:36.706Z,20.60
2018-07-26T23:29:05.511Z,20.50
2018-07-26T23:31:34.105Z,20.50
2018-07-26T23:34:02.876Z,20.40
2018-07-26T23:36:31.528Z,20.40
2018-07-26T23:39:00.161Z,20.40
2018-07-26T23:41:28.777Z,20.40
2018-07-26T23:43:57.384Z,20.40
2018-07-26T23:46:26.081Z,20.30
2018-07-26T23:48:54.700Z,20.20
2018-07-26T23:51:23.219Z,20.10
2018-07-26T23:53:51.860Z,20.00
2018-07-26T23:56:20.486Z,20.00
2018-07-26T23:58:49.131Z,19.90
